Main page
METAR-TAF:

METAR-TAF

Airports :

Hanoi, Vietnam

Noi Bai International Airport

latitude: 21-01N, longitude: 105-48E, elevation: 6 m

Current weather observation

The report was made 22 minutes ago, at 11:30 UTC
Wind 7 kt from the Northeast, varying between North/Northeast and East
Temperature 20°C
Humidity 60%
Pressure 1019 hPa
Visibility 10 km or more
Broken clouds at a height of 4800 ft

METAR: VVNB 201130Z 05007KT 020V080 9999 BKN048 20/12 Q1019 NOSIG

Time: 18:52 (11:52 UTC)

Forecast

The report was made 52 minutes ago, at 11:00 UTC
Forecast valid from 20 at 12 UTC to 21 at 12 UTC
Wind 9 kt from the Northeast
Visibility: 8000 m
Few clouds at a height of 2500 ft
Broken clouds at a height of 4000 ft

TAF: VVNB 201100Z 2012/2112 04009KT 8000 FEW025 BKN040

Weather observations and forecasts of more than 4000 airports (METAR and TAF reports).

The available stations are represented by yellow and red dots on the map.

Hover mouse over dot to see the name of the station.

Then click to see weather observations and forecasts.

To change the map : click on the green buttons with a black cross to zoom in, on the green button with a dash to zoom out, or on the green arrows for adjacent maps.


METAR-TAF: